Time;durP1;ratioP1;P1;durP2;ratioP2;P2;SDS_P1;SDS_P2;PMS_P1;PMS_P2;Temp;Humidity;BMP_temperature;BMP_pressure;BME280_temperature;BME280_humidity;BME280_pressure;Samples;Min_cycle;Max_cycle;Signal;HPM_P1;HPM_P2
2023/09/16 00:02:16;;;;;;;2.10;1.88;;;21.70;63.10;;;;;;5052119;28;20209;-69
2023/09/16 00:04:41;;;;;;;2.20;1.98;;;21.70;63.10;;;;;;5051246;28;20635;-70
2023/09/16 00:07:07;;;;;;;1.85;1.75;;;21.70;63.10;;;;;;5052249;28;20206;-71
2023/09/16 00:09:33;;;;;;;1.98;1.83;;;21.70;63.10;;;;;;5052100;28;20214;-71
2023/09/16 00:11:59;;;;;;;2.30;1.88;;;21.70;63.10;;;;;;5052103;28;20179;-72
2023/09/16 00:14:25;;;;;;;2.03;1.92;;;21.70;63.10;;;;;;5052630;28;20195;-71
2023/09/16 00:16:52;;;;;;;2.08;1.90;;;21.70;63.90;;;;;;5052022;28;20221;-72
2023/09/16 00:19:18;;;;;;;2.13;1.60;;;21.70;63.20;;;;;;5051725;28;20525;-71
2023/09/16 00:21:45;;;;;;;2.10;1.90;;;21.70;63.20;;;;;;5052363;28;20187;-71
2023/09/16 00:24:11;;;;;;;2.00;1.90;;;21.70;63.20;;;;;;5051445;28;20219;-71
2023/09/16 00:26:40;;;;;;;2.22;2.00;;;21.60;63.20;;;;;;5052075;28;20220;-71
2023/09/16 00:29:06;;;;;;;1.83;1.73;;;21.70;63.20;;;;;;5052055;28;20183;-71
2023/09/16 00:31:33;;;;;;;1.85;1.70;;;21.60;63.20;;;;;;5051760;28;20400;-70
2023/09/16 00:33:59;;;;;;;2.20;1.92;;;21.60;63.10;;;;;;5017760;28;20171;-70
2023/09/16 00:36:24;;;;;;;2.20;2.00;;;21.60;63.20;;;;;;5051923;28;20221;-70
2023/09/16 00:38:50;;;;;;;2.05;1.92;;;21.60;63.20;;;;;;5051817;28;20171;-70
2023/09/16 00:41:15;;;;;;;2.25;2.00;;;21.60;63.20;;;;;;5052049;28;20177;-72
2023/09/16 00:43:41;;;;;;;2.05;1.88;;;21.60;63.50;;;;;;5034589;28;20672;-70
2023/09/16 00:46:06;;;;;;;2.38;2.17;;;21.60;63.20;;;;;;5051220;28;20171;-70
2023/09/16 00:48:32;;;;;;;2.15;2.05;;;21.60;63.20;;;;;;5052011;28;20175;-70
2023/09/16 00:50:57;;;;;;;1.85;1.75;;;21.60;63.20;;;;;;5051772;28;20167;-70
2023/09/16 00:53:23;;;;;;;2.13;1.98;;;21.60;63.20;;;;;;5051421;28;20171;-71
2023/09/16 00:55:48;;;;;;;1.90;1.80;;;21.60;63.20;;;;;;5034516;28;20229;-71
2023/09/16 00:58:17;;;;;;;1.80;1.70;;;21.50;63.10;;;;;;5034110;28;20179;-70
2023/09/16 01:00:42;;;;;;;2.08;1.90;;;21.60;63.20;;;;;;5034029;28;20194;-69
2023/09/16 01:03:08;;;;;;;1.80;1.70;;;21.60;63.20;;;;;;5051644;28;20669;-69
2023/09/16 01:05:33;;;;;;;2.13;1.95;;;21.60;63.20;;;;;;5052092;28;20182;-70
2023/09/16 01:07:59;;;;;;;2.28;2.08;;;21.60;63.20;;;;;;5033511;28;20187;-71
2023/09/16 01:10:24;;;;;;;2.13;1.98;;;21.60;63.20;;;;;;5052093;28;20620;-72
2023/09/16 01:12:54;;;;;;;1.77;1.67;;;21.60;63.20;;;;;;5051411;28;20693;-72
2023/09/16 01:15:22;;;;;;;1.80;1.70;;;21.60;63.30;;;;;;5034685;28;20764;-71
2023/09/16 01:17:53;;;;;;;2.00;1.90;;;21.60;63.30;;;;;;5055430;28;20182;-70
2023/09/16 01:20:19;;;;;;;2.10;1.90;;;21.50;63.20;;;;;;5054839;28;20175;-71
2023/09/16 01:22:45;;;;;;;2.38;2.17;;;21.60;63.30;;;;;;5037695;28;20214;-71
2023/09/16 01:25:14;;;;;;;1.98;1.88;;;21.60;63.30;;;;;;5055227;28;20183;-72
2023/09/16 01:27:40;;;;;;;1.85;1.75;;;21.50;63.20;;;;;;5054962;28;20253;-70
2023/09/16 01:30:07;;;;;;;2.08;1.98;;;21.50;63.20;;;;;;5054841;28;20198;-70
2023/09/16 01:32:39;;;;;;;2.45;2.25;;;21.60;63.30;;;;;;5055045;28;20329;-70
2023/09/16 01:35:06;;;;;;;1.90;1.80;;;21.50;63.30;;;;;;5037001;28;20178;-70
2023/09/16 01:37:32;;;;;;;2.63;2.20;;;21.50;63.20;;;;;;5037207;28;20234;-70
2023/09/16 01:39:58;;;;;;;1.88;1.70;;;21.50;63.20;;;;;;5037301;28;20221;-70
2023/09/16 01:42:24;;;;;;;1.80;1.70;;;21.50;63.20;;;;;;5020050;28;20199;-70
2023/09/16 01:44:53;;;;;;;2.53;2.33;;;21.50;63.20;;;;;;5037346;28;20183;-69
2023/09/16 01:47:19;;;;;;;1.95;1.85;;;21.50;63.20;;;;;;5054794;28;20183;-69
2023/09/16 01:49:44;;;;;;;2.20;2.00;;;21.50;63.20;;;;;;5054386;28;20187;-70
2023/09/16 01:52:11;;;;;;;2.25;2.05;;;21.50;63.20;;;;;;5054711;28;20672;-70
2023/09/16 01:54:36;;;;;;;2.30;2.10;;;21.50;63.30;;;;;;5054901;28;20262;-70
2023/09/16 01:57:02;;;;;;;2.40;2.08;;;21.50;63.20;;;;;;5053897;28;20586;-70
2023/09/16 01:59:28;;;;;;;2.25;1.85;;;21.50;63.30;;;;;;5054801;28;20706;-69
2023/09/16 02:01:53;;;;;;;2.22;2.03;;;21.50;63.30;;;;;;5054611;28;20633;-71
2023/09/16 02:04:19;;;;;;;2.35;2.15;;;21.50;63.40;;;;;;5054191;28;20214;-69
2023/09/16 02:06:46;;;;;;;1.90;1.80;;;21.50;63.30;;;;;;5054819;28;20206;-71
2023/09/16 02:09:12;;;;;;;2.42;2.22;;;21.50;63.30;;;;;;5053872;28;20187;-72
2023/09/16 02:11:38;;;;;;;2.40;2.20;;;21.50;63.40;;;;;;5054390;28;20216;-72
2023/09/16 02:14:04;;;;;;;2.20;2.00;;;21.50;63.30;;;;;;5054071;28;20175;-72
2023/09/16 02:16:30;;;;;;;2.50;2.08;;;21.40;63.30;;;;;;5054059;28;20529;-71
2023/09/16 02:18:56;;;;;;;2.20;2.00;;;21.50;63.30;;;;;;5054083;28;20208;-72
2023/09/16 02:21:22;;;;;;;1.92;1.83;;;21.50;63.40;;;;;;5054245;28;20313;-71
2023/09/16 02:23:48;;;;;;;3.00;2.20;;;21.50;63.40;;;;;;5054073;28;20299;-71
2023/09/16 02:26:13;;;;;;;2.08;1.98;;;21.50;63.40;;;;;;5053828;28;20203;-72
2023/09/16 02:28:40;;;;;;;2.30;2.10;;;21.40;63.30;;;;;;5053594;28;20221;-70
2023/09/16 02:31:06;;;;;;;2.35;2.25;;;21.40;63.30;;;;;;5053437;28;20168;-71
2023/09/16 02:33:32;;;;;;;2.05;1.92;;;21.40;63.30;;;;;;5054057;28;20586;-70
2023/09/16 02:35:57;;;;;;;2.30;2.15;;;21.40;63.30;;;;;;5053850;28;20178;-71
2023/09/16 02:38:23;;;;;;;2.60;2.40;;;21.40;63.30;;;;;;5053073;28;20222;-71
2023/09/16 02:40:48;;;;;;;2.00;1.90;;;21.40;63.30;;;;;;5054030;28;20171;-70
2023/09/16 02:43:14;;;;;;;2.25;2.13;;;21.40;63.30;;;;;;5053503;28;20238;-71
2023/09/16 02:45:40;;;;;;;2.00;1.85;;;21.40;63.40;;;;;;5053448;28;20573;-69
2023/09/16 02:48:06;;;;;;;2.40;2.20;;;21.40;63.40;;;;;;5053580;28;20210;-70
2023/09/16 02:50:39;;;;;;;2.58;2.38;;;21.40;63.40;;;;;;5053800;28;20206;-71
2023/09/16 02:53:05;;;;;;;2.00;1.85;;;21.40;63.40;;;;;;5052760;28;20237;-71
2023/09/16 02:55:31;;;;;;;2.20;2.00;;;21.40;63.30;;;;;;5053667;28;20171;-71
2023/09/16 02:57:59;;;;;;;2.10;2.00;;;21.40;63.30;;;;;;5053527;28;20182;-70
2023/09/16 03:00:24;;;;;;;3.03;2.30;;;21.40;63.30;;;;;;5052967;28;20175;-69
2023/09/16 03:02:50;;;;;;;2.53;2.28;;;21.30;63.30;;;;;;5053604;28;20210;-69
2023/09/16 03:05:16;;;;;;;2.50;2.30;;;21.40;63.40;;;;;;5052658;28;20258;-70
2023/09/16 03:07:42;;;;;;;2.20;2.00;;;21.40;63.40;;;;;;5053322;28;20175;-71
2023/09/16 03:10:08;;;;;;;2.33;2.13;;;21.40;63.40;;;;;;5053012;28;20259;-72
2023/09/16 03:12:34;;;;;;;2.30;2.10;;;21.40;63.40;;;;;;5052729;28;20266;-72
2023/09/16 03:14:59;;;;;;;2.55;2.35;;;21.30;63.30;;;;;;5052815;28;20179;-72
2023/09/16 03:17:25;;;;;;;2.30;2.10;;;21.40;63.40;;;;;;5053323;28;20174;-70
2023/09/16 03:19:50;;;;;;;2.20;2.10;;;21.30;63.40;;;;;;5052748;28;20179;-71
2023/09/16 03:22:16;;;;;;;3.15;2.85;;;21.40;63.40;;;;;;5052489;28;20175;-71
2023/09/16 03:24:42;;;;;;;2.33;2.20;;;21.30;63.40;;;;;;5053245;28;20179;-71
2023/09/16 03:27:08;;;;;;;2.40;2.20;;;21.30;63.40;;;;;;5052280;28;20184;-72
2023/09/16 03:29:33;;;;;;;2.42;2.22;;;21.30;63.30;;;;;;5053194;28;20543;-70
2023/09/16 03:31:59;;;;;;;2.42;2.22;;;21.30;63.40;;;;;;5052897;28;20267;-71
2023/09/16 03:34:24;;;;;;;2.25;2.10;;;21.30;63.90;;;;;;5052320;28;20195;-69
2023/09/16 03:36:50;;;;;;;2.70;2.50;;;21.30;63.40;;;;;;5052930;28;20218;-70
2023/09/16 03:39:16;;;;;;;2.58;2.38;;;21.30;63.40;;;;;;5033977;28;20171;-71
2023/09/16 03:41:41;;;;;;;2.97;2.47;;;21.30;64.20;;;;;;5052201;28;20195;-71
2023/09/16 03:44:07;;;;;;;2.45;2.30;;;21.30;63.40;;;;;;5052337;28;20253;-71
2023/09/16 03:46:33;;;;;;;2.40;2.20;;;21.30;63.40;;;;;;5052969;28;20175;-69
2023/09/16 03:48:59;;;;;;;2.50;2.30;;;21.30;63.40;;;;;;5051764;28;20215;-70
2023/09/16 03:51:26;;;;;;;2.40;2.20;;;21.20;63.40;;;;;;5052642;28;20221;-71
2023/09/16 03:53:52;;;;;;;2.50;2.17;;;21.30;63.40;;;;;;5052738;28;20546;-70
2023/09/16 03:56:18;;;;;;;2.65;2.28;;;21.30;63.40;;;;;;5017353;28;20674;-71
2023/09/16 03:58:44;;;;;;;2.50;2.30;;;21.30;63.40;;;;;;5052898;28;20217;-70
2023/09/16 04:01:10;;;;;;;2.60;2.40;;;21.30;63.40;;;;;;5052433;28;20613;-70
2023/09/16 04:03:35;;;;;;;2.80;2.60;;;21.30;63.40;;;;;;5051945;28;20222;-70
2023/09/16 04:06:03;;;;;;;2.58;2.38;;;21.20;63.40;;;;;;5052414;28;20175;-71
2023/09/16 04:08:29;;;;;;;1.98;1.88;;;21.30;63.50;;;;;;5052168;28;20209;-72
2023/09/16 04:10:54;;;;;;;2.30;2.10;;;21.30;63.50;;;;;;5052431;28;20171;-72
2023/09/16 04:13:21;;;;;;;2.72;2.53;;;21.30;63.50;;;;;;5052214;28;20568;-72
2023/09/16 04:15:47;;;;;;;1.88;1.70;;;21.30;63.50;;;;;;5052116;28;20567;-71
2023/09/16 04:18:13;;;;;;;2.40;2.20;;;21.30;63.50;;;;;;5051953;28;20179;-72
2023/09/16 04:20:38;;;;;;;2.47;2.28;;;21.20;63.40;;;;;;5052509;28;20285;-71
2023/09/16 04:23:04;;;;;;;2.20;2.08;;;21.30;63.50;;;;;;5051467;28;20272;-71
2023/09/16 04:25:30;;;;;;;2.58;2.38;;;21.30;63.50;;;;;;5052042;28;20261;-72
2023/09/16 04:27:55;;;;;;;2.83;2.47;;;21.20;63.40;;;;;;5052278;28;20266;-70
2023/09/16 04:30:21;;;;;;;3.72;2.63;;;21.20;63.40;;;;;;5051489;28;20175;-70
2023/09/16 04:32:46;;;;;;;2.63;2.42;;;21.20;63.50;;;;;;5052310;28;20245;-70
2023/09/16 04:35:12;;;;;;;2.85;2.30;;;21.20;63.50;;;;;;5052076;28;20175;-69
2023/09/16 04:37:37;;;;;;;2.60;2.40;;;21.20;63.60;;;;;;5051364;28;20223;-71
2023/09/16 04:40:12;;;;;;;2.80;2.60;;;21.20;63.50;;;;;;5051930;28;20673;-71
2023/09/16 04:42:38;;;;;;;2.63;2.42;;;21.20;63.50;;;;;;5052326;28;20214;-70
2023/09/16 04:45:05;;;;;;;2.22;2.13;;;21.20;63.50;;;;;;5051236;28;20175;-71
2023/09/16 04:47:30;;;;;;;2.55;2.35;;;21.20;63.50;;;;;;5052278;28;20199;-69
2023/09/16 04:49:56;;;;;;;3.00;2.28;;;21.20;63.50;;;;;;5052457;28;20535;-71
2023/09/16 04:52:22;;;;;;;2.53;2.33;;;21.20;63.40;;;;;;5054934;28;20261;-71
2023/09/16 04:54:48;;;;;;;2.65;2.45;;;21.20;63.50;;;;;;5055984;28;20171;-71
2023/09/16 04:57:14;;;;;;;2.70;2.50;;;21.20;63.40;;;;;;5037621;28;20184;-71
2023/09/16 04:59:39;;;;;;;2.83;2.50;;;21.20;63.50;;;;;;5055212;28;20194;-69
2023/09/16 05:02:05;;;;;;;2.70;2.50;;;21.20;63.50;;;;;;5037724;28;20175;-70
2023/09/16 05:04:30;;;;;;;2.33;2.13;;;21.20;63.50;;;;;;5055694;28;20608;-69
2023/09/16 05:06:56;;;;;;;2.65;2.45;;;21.20;63.50;;;;;;5054932;28;20534;-72
2023/09/16 05:09:24;;;;;;;2.63;2.42;;;21.20;63.50;;;;;;5055617;28;20182;-72
2023/09/16 05:11:50;;;;;;;2.60;2.40;;;21.20;63.50;;;;;;5055359;28;20171;-71
2023/09/16 05:14:16;;;;;;;2.90;2.70;;;21.20;63.50;;;;;;5055111;28;20526;-72
2023/09/16 05:16:41;;;;;;;2.85;2.65;;;21.10;63.40;;;;;;5055689;28;20171;-71
2023/09/16 05:19:07;;;;;;;2.40;2.20;;;21.10;63.40;;;;;;5054860;28;21127;-71
2023/09/16 05:21:33;;;;;;;2.50;2.30;;;21.10;63.40;;;;;;5055142;28;20606;-71
2023/09/16 05:23:58;;;;;;;2.70;2.50;;;21.10;63.40;;;;;;5055252;28;20673;-71
2023/09/16 05:26:24;;;;;;;2.88;2.40;;;21.20;63.60;;;;;;5054751;28;20182;-71
2023/09/16 05:28:50;;;;;;;2.58;2.38;;;21.10;63.50;;;;;;5055652;28;20179;-72
2023/09/16 05:31:16;;;;;;;2.30;2.10;;;21.20;63.50;;;;;;5054969;28;20171;-70
2023/09/16 05:33:41;;;;;;;2.65;2.45;;;21.10;63.40;;;;;;5036913;28;20178;-71
2023/09/16 05:36:07;;;;;;;2.83;2.63;;;21.10;63.50;;;;;;5054614;28;20171;-70
2023/09/16 05:38:32;;;;;;;2.85;2.65;;;21.10;63.50;;;;;;5054996;28;20266;-71
2023/09/16 05:40:59;;;;;;;2.45;2.25;;;21.10;63.50;;;;;;5054388;28;20254;-72
2023/09/16 05:43:25;;;;;;;2.67;2.47;;;21.10;63.40;;;;;;5055113;28;20249;-70
2023/09/16 05:45:50;;;;;;;2.70;2.47;;;21.10;63.50;;;;;;5055167;28;20207;-70
2023/09/16 05:48:16;;;;;;;2.55;2.35;;;21.10;63.50;;;;;;5054055;28;20203;-70
2023/09/16 05:50:42;;;;;;;2.63;2.42;;;21.10;63.50;;;;;;5054911;28;20202;-70
2023/09/16 05:53:07;;;;;;;2.38;2.22;;;21.10;63.50;;;;;;5054823;28;20266;-72
2023/09/16 05:55:40;;;;;;;2.97;2.78;;;21.10;63.50;;;;;;5054215;28;20167;-71
2023/09/16 05:58:07;;;;;;;2.40;2.20;;;21.10;63.50;;;;;;5054568;28;20175;-71
2023/09/16 06:00:33;;;;;;;2.58;2.38;;;21.10;63.50;;;;;;5054608;28;20176;-70
2023/09/16 06:02:58;;;;;;;3.08;2.28;;;21.10;63.50;;;;;;5052581;28;20217;-69
2023/09/16 06:05:29;;;;;;;2.70;2.50;;;21.00;63.40;;;;;;5054481;28;20171;-69
2023/09/16 06:07:54;;;;;;;2.70;2.50;;;21.10;63.50;;;;;;5054586;28;20572;-70
2023/09/16 06:10:20;;;;;;;2.72;2.53;;;21.10;63.50;;;;;;5053782;28;20176;-72
2023/09/16 06:12:46;;;;;;;2.70;2.50;;;21.10;63.50;;;;;;5054576;28;20538;-72
2023/09/16 06:15:11;;;;;;;2.47;2.28;;;21.20;63.60;;;;;;5053886;28;20213;-72
2023/09/16 06:17:37;;;;;;;3.33;2.47;;;21.10;63.50;;;;;;5054204;28;20167;-72
2023/09/16 06:20:03;;;;;;;2.70;2.50;;;21.10;63.50;;;;;;5053992;28;20175;-70
2023/09/16 06:22:29;;;;;;;3.13;2.88;;;21.10;63.50;;;;;;5053590;28;20175;-72
2023/09/16 06:24:54;;;;;;;3.03;2.72;;;21.10;63.50;;;;;;5036692;28;20175;-73
2023/09/16 06:27:20;;;;;;;3.22;2.80;;;21.10;63.50;;;;;;5053986;28;20179;-71
2023/09/16 06:29:46;;;;;;;3.33;2.70;;;21.10;63.50;;;;;;5053523;28;20181;-71
2023/09/16 06:32:12;;;;;;;3.05;2.42;;;21.10;63.50;;;;;;5053862;28;20633;-70
2023/09/16 06:34:37;;;;;;;2.90;2.70;;;21.10;63.50;;;;;;5054044;28;20179;-70
2023/09/16 06:37:05;;;;;;;2.85;2.65;;;21.10;63.60;;;;;;5053042;28;20230;-71
2023/09/16 06:39:31;;;;;;;3.30;3.00;;;21.10;64.40;;;;;;5054108;28;20175;-70
2023/09/16 06:41:56;;;;;;;2.55;2.35;;;21.10;63.60;;;;;;5053842;28;20175;-72
2023/09/16 06:44:22;;;;;;;2.55;2.40;;;21.10;63.60;;;;;;5052751;28;20214;-70
2023/09/16 06:46:47;;;;;;;3.13;2.90;;;21.10;63.60;;;;;;5053824;28;20206;-70
2023/09/16 06:49:13;;;;;;;3.05;2.80;;;21.10;63.50;;;;;;5053330;28;20183;-71
2023/09/16 06:51:38;;;;;;;2.55;2.38;;;21.10;63.60;;;;;;5053253;28;20179;-71
2023/09/16 06:54:04;;;;;;;3.20;2.92;;;21.20;63.60;;;;;;5053701;28;20629;-72
2023/09/16 06:56:30;;;;;;;2.80;2.55;;;21.20;63.50;;;;;;5053848;28;20693;-70
2023/09/16 06:58:56;;;;;;;2.67;2.28;;;21.20;63.40;;;;;;5052901;28;20186;-70
2023/09/16 07:01:23;;;;;;;2.58;2.38;;;21.20;63.30;;;;;;5053477;28;20171;-70
2023/09/16 07:03:48;;;;;;;2.70;2.50;;;21.30;63.40;;;;;;5053511;28;20211;-70
2023/09/16 07:06:14;;;;;;;2.58;2.38;;;21.30;63.30;;;;;;5052287;28;20194;-72
2023/09/16 07:08:39;;;;;;;2.88;2.63;;;21.30;63.20;;;;;;5053402;28;20274;-71
2023/09/16 07:11:05;;;;;;;2.58;2.38;;;21.30;63.20;;;;;;5052969;28;20206;-72
2023/09/16 07:13:30;;;;;;;2.15;2.05;;;21.30;63.20;;;;;;5052417;28;20197;-72
2023/09/16 07:15:56;;;;;;;2.38;2.22;;;21.30;63.20;;;;;;5053262;28;20261;-72
2023/09/16 07:18:22;;;;;;;2.38;2.20;;;21.30;63.20;;;;;;5052489;28;20256;-70
2023/09/16 07:20:49;;;;;;;2.47;2.28;;;21.30;63.20;;;;;;5053200;28;20167;-70
2023/09/16 07:23:14;;;;;;;2.90;2.38;;;21.30;63.20;;;;;;5052830;28;20223;-71
2023/09/16 07:25:40;;;;;;;3.38;2.63;;;21.30;63.30;;;;;;5052584;28;20171;-70
2023/09/16 07:28:07;;;;;;;2.80;2.60;;;21.30;63.30;;;;;;5053046;28;20540;-71
2023/09/16 07:30:33;;;;;;;2.47;2.28;;;21.30;63.30;;;;;;5052942;28;20183;-70
2023/09/16 07:32:59;;;;;;;2.92;2.72;;;21.30;63.30;;;;;;5051982;28;20183;-69
2023/09/16 07:35:24;;;;;;;2.78;2.58;;;21.40;63.30;;;;;;5052903;28;20174;-69
2023/09/16 07:37:51;;;;;;;2.80;2.60;;;21.40;63.10;;;;;;5034875;28;20245;-72
2023/09/16 07:40:16;;;;;;;2.63;2.42;;;21.40;63.10;;;;;;5051698;28;20629;-70
2023/09/16 07:42:42;;;;;;;2.65;2.45;;;21.40;63.00;;;;;;5034957;28;20230;-70
2023/09/16 07:45:08;;;;;;;2.40;2.20;;;21.50;63.50;;;;;;5052664;28;20175;-68
2023/09/16 07:47:34;;;;;;;2.35;2.15;;;21.50;63.00;;;;;;5051929;28;20560;-69
2023/09/16 07:49:59;;;;;;;2.80;2.60;;;21.50;63.00;;;;;;5052403;28;20191;-71
2023/09/16 07:52:25;;;;;;;2.47;2.22;;;21.60;63.00;;;;;;5052730;28;20185;-71
2023/09/16 07:54:57;;;;;;;2.65;2.45;;;21.60;62.90;;;;;;5051935;28;20518;-71
2023/09/16 07:57:23;;;;;;;2.78;2.58;;;21.60;63.00;;;;;;5052656;28;20251;-70
2023/09/16 07:59:48;;;;;;;2.60;2.40;;;21.60;63.00;;;;;;5052591;28;20262;-69
2023/09/16 08:02:15;;;;;;;2.80;2.38;;;21.50;63.00;;;;;;5051698;28;20175;-69
2023/09/16 08:04:40;;;;;;;2.40;2.20;;;21.50;63.10;;;;;;5052597;28;20187;-68
2023/09/16 08:07:06;;;;;;;2.38;2.17;;;21.50;63.20;;;;;;5052258;28;20536;-71
2023/09/16 08:09:32;;;;;;;2.63;2.42;;;21.50;63.20;;;;;;5051627;28;20712;-72
2023/09/16 08:11:59;;;;;;;2.47;2.28;;;21.50;63.20;;;;;;5052238;28;20175;-73
2023/09/16 08:14:24;;;;;;;2.83;2.63;;;21.50;63.20;;;;;;5052371;28;20202;-72
2023/09/16 08:16:52;;;;;;;2.70;2.50;;;21.50;63.30;;;;;;5052057;28;20206;-70
2023/09/16 08:19:19;;;;;;;2.70;2.50;;;21.50;63.30;;;;;;5018791;28;20224;-72
2023/09/16 08:21:44;;;;;;;2.78;2.53;;;21.50;63.30;;;;;;5051846;28;20523;-71
2023/09/16 08:24:10;;;;;;;3.13;2.83;;;21.50;63.30;;;;;;5052012;28;20267;-72
2023/09/16 08:26:35;;;;;;;2.60;2.40;;;21.50;63.30;;;;;;5055586;28;20196;-72
2023/09/16 08:29:01;;;;;;;2.40;2.20;;;21.60;63.40;;;;;;5055226;28;20171;-68
2023/09/16 08:31:26;;;;;;;2.40;2.30;;;21.60;63.30;;;;;;5056338;28;20198;-71
2023/09/16 08:33:59;;;;;;;2.60;2.40;;;21.50;63.30;;;;;;5056472;28;20178;-69
2023/09/16 08:36:24;;;;;;;2.55;2.35;;;21.60;63.40;;;;;;5055487;28;20252;-71
2023/09/16 08:38:50;;;;;;;2.72;2.53;;;21.60;63.40;;;;;;5056494;28;20516;-72
2023/09/16 08:41:21;;;;;;;2.50;2.30;;;21.60;63.20;;;;;;5055765;28;20542;-71
2023/09/16 08:43:47;;;;;;;2.63;2.42;;;21.60;63.20;;;;;;5037546;28;20219;-71
2023/09/16 08:46:15;;;;;;;2.50;2.30;;;21.60;63.20;;;;;;5021704;28;20265;-70
2023/09/16 08:48:41;;;;;;;2.90;2.70;;;21.80;63.00;;;;;;5038556;28;20186;-70
2023/09/16 08:51:07;;;;;;;3.03;2.40;;;21.80;62.90;;;;;;5055110;28;20175;-71
2023/09/16 08:53:35;;;;;;;2.28;2.03;;;21.80;62.80;;;;;;5021613;28;20175;-70
2023/09/16 08:56:01;;;;;;;2.97;2.50;;;21.90;62.80;;;;;;5037913;28;20524;-71
2023/09/16 08:58:26;;;;;;;2.78;2.58;;;21.90;62.70;;;;;;5037353;28;20198;-70
2023/09/16 09:00:52;;;;;;;2.53;2.33;;;21.90;62.60;;;;;;5055912;28;20206;-70
2023/09/16 09:03:17;;;;;;;2.20;2.08;;;21.90;62.60;;;;;;5037793;28;20210;-69
2023/09/16 09:05:43;;;;;;;2.30;2.10;;;22.00;62.60;;;;;;5037390;28;20207;-71
2023/09/16 09:08:10;;;;;;;2.67;2.50;;;22.00;62.60;;;;;;5037817;28;20190;-73
2023/09/16 09:10:37;;;;;;;2.40;2.20;;;22.00;62.60;;;;;;5021867;28;20171;-72
2023/09/16 09:13:03;;;;;;;2.60;2.40;;;22.00;62.50;;;;;;5054667;28;20183;-73
2023/09/16 09:15:29;;;;;;;2.63;2.28;;;22.00;62.50;;;;;;5021682;28;20536;-71
2023/09/16 09:17:56;;;;;;;2.25;2.13;;;22.10;62.40;;;;;;5037506;28;20269;-72
2023/09/16 09:20:24;;;;;;;2.17;2.08;;;22.10;62.50;;;;;;5055281;28;20179;-71
2023/09/16 09:22:50;;;;;;;2.45;2.28;;;22.10;62.40;;;;;;5055445;28;20203;-70
2023/09/16 09:25:26;;;;;;;2.50;2.30;;;22.20;62.40;;;;;;5054320;28;20291;-71
2023/09/16 09:27:53;;;;;;;2.40;2.20;;;22.20;62.40;;;;;;5055695;28;20187;-70
2023/09/16 09:30:27;;;;;;;2.30;2.10;;;22.20;62.30;;;;;;5054938;28;20653;-69
2023/09/16 09:32:55;;;;;;;2.42;2.22;;;22.20;62.30;;;;;;5054747;28;20187;-70
2023/09/16 09:35:28;;;;;;;2.22;2.13;;;22.30;62.20;;;;;;5054957;28;20175;-70
2023/09/16 09:37:53;;;;;;;2.35;2.25;;;22.30;62.20;;;;;;5053606;28;20781;-71
2023/09/16 09:40:19;;;;;;;2.20;2.03;;;22.30;62.20;;;;;;5054253;28;20265;-71
2023/09/16 09:42:49;;;;;;;2.33;2.22;;;22.30;62.30;;;;;;5055218;28;20203;-70
2023/09/16 09:45:16;;;;;;;2.60;2.40;;;22.30;62.20;;;;;;5054755;28;20183;-71
2023/09/16 09:47:41;;;;;;;2.45;2.25;;;22.30;62.10;;;;;;5054696;28;20190;-69
2023/09/16 09:50:11;;;;;;;2.15;2.05;;;22.40;63.10;;;;;;5054727;28;20183;-71
2023/09/16 09:52:36;;;;;;;2.50;2.30;;;22.40;62.10;;;;;;5055079;28;20179;-70
2023/09/16 09:55:02;;;;;;;2.03;1.92;;;22.40;62.10;;;;;;5019904;28;20530;-71
2023/09/16 09:57:28;;;;;;;2.47;2.28;;;22.40;62.00;;;;;;5054740;28;20171;-70
2023/09/16 09:59:55;;;;;;;2.15;2.05;;;22.40;62.00;;;;;;5054914;28;20176;-69
2023/09/16 10:02:27;;;;;;;2.58;2.10;;;22.50;62.00;;;;;;5036147;28;20172;-70
2023/09/16 10:05:01;;;;;;;2.38;2.25;;;22.50;62.00;;;;;;5054640;28;20183;-69
2023/09/16 10:07:27;;;;;;;2.30;2.10;;;22.50;61.90;;;;;;5054066;28;20190;-72
2023/09/16 10:09:53;;;;;;;2.28;2.17;;;22.50;62.00;;;;;;5054732;28;20171;-73
2023/09/16 10:12:19;;;;;;;2.50;2.30;;;22.50;61.90;;;;;;5054247;28;20175;-70
2023/09/16 10:14:45;;;;;;;2.60;2.42;;;22.50;61.80;;;;;;5036294;28;20187;-72
2023/09/16 10:17:11;;;;;;;2.63;2.42;;;22.60;61.80;;;;;;5036329;28;20174;-70
2023/09/16 10:19:37;;;;;;;2.28;2.08;;;22.60;61.80;;;;;;5036539;28;20214;-71
2023/09/16 10:22:02;;;;;;;2.60;2.40;;;22.60;61.80;;;;;;5035615;28;20215;-71
2023/09/16 10:24:28;;;;;;;2.60;2.40;;;22.60;61.80;;;;;;5036568;28;20210;-71
2023/09/16 10:26:54;;;;;;;2.22;2.13;;;22.60;61.70;;;;;;5036798;28;20171;-72
2023/09/16 10:29:20;;;;;;;2.85;2.65;;;22.60;61.70;;;;;;5053198;28;20179;-70
2023/09/16 10:31:45;;;;;;;2.40;2.00;;;22.70;61.70;;;;;;5019966;28;20174;-70
2023/09/16 10:34:11;;;;;;;2.38;2.17;;;22.60;61.60;;;;;;5035985;28;20205;-70
2023/09/16 10:36:36;;;;;;;2.38;2.28;;;22.70;61.60;;;;;;5019092;28;20242;-70
2023/09/16 10:39:02;;;;;;;2.33;2.13;;;22.70;61.60;;;;;;5036167;28;20214;-71
2023/09/16 10:41:28;;;;;;;2.38;2.20;;;22.70;61.60;;;;;;5036241;28;20178;-70
2023/09/16 10:43:55;;;;;;;2.20;2.10;;;22.70;61.50;;;;;;5053122;28;20207;-70
2023/09/16 10:46:20;;;;;;;2.63;2.42;;;22.80;61.60;;;;;;5019843;28;20195;-70
2023/09/16 10:48:46;;;;;;;2.20;2.00;;;22.80;61.50;;;;;;5035635;28;20203;-70
2023/09/16 10:51:15;;;;;;;2.15;2.05;;;22.80;61.50;;;;;;5052977;28;20565;-71
2023/09/16 10:53:41;;;;;;;2.15;2.03;;;22.80;61.50;;;;;;5036771;28;20308;-70
2023/09/16 10:56:10;;;;;;;2.85;2.65;;;22.80;61.40;;;;;;5035661;28;20254;-71
2023/09/16 10:58:46;;;;;;;2.30;2.20;;;22.80;61.40;;;;;;5052885;28;20209;-70
2023/09/16 11:01:32;;;;;;;2.25;2.10;;;22.80;61.40;;;;;;5035504;28;20174;-70
2023/09/16 11:04:01;;;;;;;2.10;1.98;;;22.80;61.40;;;;;;5037188;28;20229;-70
2023/09/16 11:06:27;;;;;;;2.35;2.15;;;22.90;61.40;;;;;;5036274;28;20274;-71
2023/09/16 11:08:52;;;;;;;2.58;2.38;;;22.90;61.40;;;;;;5035805;28;20191;-72
2023/09/16 11:11:18;;;;;;;2.40;2.20;;;22.90;61.40;;;;;;5052430;28;20175;-73
2023/09/16 11:13:44;;;;;;;2.67;2.47;;;22.90;61.30;;;;;;5035660;28;20186;-71
2023/09/16 11:16:10;;;;;;;2.28;2.08;;;22.90;61.30;;;;;;5053275;28;20198;-72
2023/09/16 11:18:40;;;;;;;2.45;2.22;;;22.90;61.30;;;;;;5052676;28;20587;-69
2023/09/16 11:21:05;;;;;;;2.45;2.25;;;22.90;61.30;;;;;;5035698;28;20588;-71
2023/09/16 11:23:31;;;;;;;2.40;2.20;;;22.90;61.40;;;;;;5053016;28;20238;-71
2023/09/16 11:25:59;;;;;;;2.40;2.20;;;22.80;62.30;;;;;;5052415;28;20203;-69
2023/09/16 11:28:25;;;;;;;2.30;2.10;;;22.90;61.40;;;;;;5053129;28;20218;-71
2023/09/16 11:30:55;;;;;;;2.50;2.30;;;22.90;61.40;;;;;;5035542;28;20175;-69
2023/09/16 11:33:47;;;;;;;2.22;2.03;;;22.90;61.30;;;;;;5052281;28;20181;-69
2023/09/16 11:36:17;;;;;;;2.65;2.45;;;22.90;61.30;;;;;;5049598;28;20664;-70
2023/09/16 11:39:05;;;;;;;2.15;2.05;;;22.90;61.20;;;;;;5052240;28;20195;-69
2023/09/16 11:41:31;;;;;;;2.63;2.28;;;23.00;61.20;;;;;;5043175;28;20629;-70
2023/09/16 11:43:56;;;;;;;2.45;2.15;;;23.00;61.20;;;;;;5052834;28;20215;-70
2023/09/16 11:46:22;;;;;;;2.63;2.30;;;23.00;61.10;;;;;;5052051;28;20197;-69
2023/09/16 11:48:52;;;;;;;2.42;2.20;;;23.00;61.10;;;;;;5035130;28;20198;-69
2023/09/16 11:51:18;;;;;;;2.30;2.17;;;23.00;61.10;;;;;;5052492;28;20183;-70
2023/09/16 11:53:45;;;;;;;2.30;2.10;;;23.00;62.00;;;;;;5052354;28;20213;-70
2023/09/16 11:56:10;;;;;;;2.45;2.25;;;23.10;61.10;;;;;;5052490;28;20182;-71
2023/09/16 11:58:36;;;;;;;2.20;2.00;;;23.10;61.10;;;;;;5034857;28;20175;-69
2023/09/16 12:01:02;;;;;;;2.50;2.30;;;23.10;61.00;;;;;;5033169;28;20364;-69
2023/09/16 12:03:27;;;;;;;2.55;2.35;;;23.10;61.00;;;;;;5018441;28;20252;-69
2023/09/16 12:05:53;;;;;;;2.40;2.20;;;23.10;61.00;;;;;;5034931;28;20183;-70
2023/09/16 12:08:18;;;;;;;2.40;2.20;;;23.10;61.10;;;;;;5033678;28;20542;-72
2023/09/16 12:10:44;;;;;;;2.60;2.40;;;23.10;61.10;;;;;;5052497;28;20171;-72
2023/09/16 12:13:10;;;;;;;2.28;2.10;;;23.10;61.10;;;;;;5052347;28;20175;-72
2023/09/16 12:15:35;;;;;;;2.38;2.20;;;23.10;61.10;;;;;;5051773;28;20175;-71
2023/09/16 12:18:01;;;;;;;2.30;2.20;;;23.10;61.20;;;;;;5052131;28;20175;-71
2023/09/16 12:20:28;;;;;;;2.45;2.25;;;23.10;61.10;;;;;;5052269;28;20218;-72
2023/09/16 12:22:53;;;;;;;2.60;2.40;;;23.10;61.10;;;;;;5017770;28;20213;-72
2023/09/16 12:25:20;;;;;;;2.75;2.55;;;23.10;61.00;;;;;;5052195;28;20254;-72
2023/09/16 12:27:45;;;;;;;2.72;2.13;;;23.10;61.00;;;;;;5052424;28;20541;-69
2023/09/16 12:30:12;;;;;;;2.50;2.30;;;23.10;61.00;;;;;;5051557;28;20175;-71
2023/09/16 12:32:37;;;;;;;2.80;2.50;;;23.20;61.00;;;;;;5052361;28;20253;-70
2023/09/16 12:35:04;;;;;;;2.42;2.22;;;23.10;60.90;;;;;;5034412;28;20604;-72
2023/09/16 12:37:30;;;;;;;2.47;2.28;;;23.20;61.00;;;;;;5052906;28;20226;-70
2023/09/16 12:39:56;;;;;;;2.42;2.22;;;23.20;60.90;;;;;;5035566;28;20183;-69
2023/09/16 12:42:21;;;;;;;2.17;2.08;;;23.20;60.90;;;;;;5051263;28;20694;-70
2023/09/16 12:44:48;;;;;;;2.42;2.22;;;23.20;61.00;;;;;;5052235;28;20207;-69